createdAt,value
2019-03-09T00:00:30.148Z,4.00
2019-03-09T00:01:30.115Z,4.00
2019-03-09T00:02:30.096Z,4.00
2019-03-09T00:03:30.079Z,4.00
2019-03-09T00:04:30.053Z,4.00
2019-03-09T00:05:30.031Z,4.00
2019-03-09T00:06:30.001Z,4.00
2019-03-09T00:07:29.985Z,4.00
2019-03-09T00:08:29.962Z,4.00
2019-03-09T00:09:29.937Z,4.00
2019-03-09T00:10:29.907Z,4.00
2019-03-09T00:11:29.889Z,4.00
2019-03-09T00:12:29.863Z,4.00
2019-03-09T00:13:29.835Z,4.00
2019-03-09T00:14:29.820Z,4.00
2019-03-09T00:15:29.792Z,4.00
2019-03-09T00:16:29.765Z,4.00
2019-03-09T00:17:29.763Z,4.00
2019-03-09T00:18:29.723Z,4.00
2019-03-09T00:19:29.692Z,4.00
2019-03-09T00:20:29.670Z,4.00
2019-03-09T00:21:29.647Z,4.00
2019-03-09T00:22:29.634Z,4.00
2019-03-09T00:23:29.612Z,4.00
2019-03-09T00:24:29.574Z,4.00
2019-03-09T00:25:29.558Z,4.00
2019-03-09T00:26:29.534Z,4.00
2019-03-09T00:27:30.298Z,4.00
2019-03-09T00:28:29.481Z,4.00
2019-03-09T00:29:29.469Z,4.00
2019-03-09T00:30:29.436Z,4.00
2019-03-09T00:31:29.416Z,4.00
2019-03-09T00:32:29.387Z,4.00
2019-03-09T00:33:29.363Z,4.00
2019-03-09T00:34:29.348Z,4.00
2019-03-09T00:35:29.318Z,4.00
2019-03-09T00:36:29.293Z,4.00
2019-03-09T00:37:29.277Z,4.00
2019-03-09T00:38:29.255Z,4.00
2019-03-09T00:39:29.224Z,4.00
2019-03-09T00:40:29.198Z,4.00
2019-03-09T00:41:29.184Z,4.00
2019-03-09T00:42:29.159Z,4.00
2019-03-09T00:43:29.132Z,4.00
2019-03-09T00:44:29.107Z,4.00
2019-03-09T00:45:29.089Z,4.00
2019-03-09T00:46:29.060Z,4.00
2019-03-09T00:47:29.035Z,4.00
2019-03-09T00:48:29.021Z,4.00
2019-03-09T00:49:28.986Z,4.00
2019-03-09T00:50:28.967Z,4.00
2019-03-09T00:51:28.990Z,4.00
2019-03-09T00:52:28.922Z,4.00
2019-03-09T00:53:28.901Z,4.00
2019-03-09T00:54:28.874Z,4.00
2019-03-09T00:55:28.856Z,4.00
2019-03-09T00:56:28.821Z,4.00
2019-03-09T00:57:28.798Z,4.00
2019-03-09T00:58:28.776Z,4.00
2019-03-09T00:59:28.754Z,4.00
2019-03-09T01:00:28.727Z,4.00
2019-03-09T01:01:28.702Z,4.00
2019-03-09T01:02:28.683Z,4.00
2019-03-09T01:03:28.657Z,4.00
2019-03-09T01:04:28.631Z,4.00
2019-03-09T01:05:28.609Z,4.00
2019-03-09T01:06:28.587Z,4.00
2019-03-09T01:07:28.563Z,4.00
2019-03-09T01:08:28.538Z,4.00
2019-03-09T01:09:28.514Z,4.00
2019-03-09T01:10:28.490Z,4.00
2019-03-09T01:11:28.468Z,4.00
2019-03-09T01:12:28.443Z,4.00
2019-03-09T01:13:28.419Z,4.00
2019-03-09T01:14:28.404Z,4.00
2019-03-09T01:15:28.372Z,4.00
2019-03-09T01:16:28.355Z,4.00
2019-03-09T01:17:28.325Z,4.00
2019-03-09T01:18:28.301Z,4.00
2019-03-09T01:19:28.277Z,4.00
2019-03-09T01:20:28.260Z,4.00
2019-03-09T01:21:28.230Z,4.00
2019-03-09T01:22:28.215Z,4.00
2019-03-09T01:23:28.183Z,4.00
2019-03-09T01:24:28.158Z,4.00
2019-03-09T01:25:28.135Z,4.00
2019-03-09T01:26:28.112Z,4.00
2019-03-09T01:27:28.088Z,4.00
2019-03-09T01:28:28.062Z,4.00
2019-03-09T01:29:28.040Z,4.00
2019-03-09T01:30:28.016Z,4.00
2019-03-09T01:31:28.000Z,4.00
2019-03-09T01:32:27.967Z,4.00
2019-03-09T01:33:27.945Z,4.00
2019-03-09T01:34:27.922Z,4.00
2019-03-09T01:35:27.897Z,4.00
2019-03-09T01:36:27.904Z,4.00
2019-03-09T01:37:27.848Z,4.00
2019-03-09T01:38:27.825Z,4.00
2019-03-09T01:39:27.804Z,4.00
2019-03-09T01:40:27.792Z,4.00
2019-03-09T01:41:27.753Z,4.00
2019-03-09T01:42:27.746Z,4.00
2019-03-09T01:43:27.708Z,4.00
2019-03-09T01:44:27.684Z,4.00
2019-03-09T01:45:27.659Z,4.00
2019-03-09T01:46:27.635Z,4.00
2019-03-09T01:47:27.611Z,4.00
2019-03-09T01:48:27.593Z,4.00
2019-03-09T01:49:27.612Z,4.00
2019-03-09T01:50:27.538Z,4.00
2019-03-09T01:51:27.514Z,4.00
2019-03-09T01:52:27.500Z,4.00
2019-03-09T01:53:36.204Z,4.00
2019-03-09T01:54:27.444Z,4.00
2019-03-09T01:55:27.422Z,4.00
2019-03-09T01:56:27.398Z,4.00
2019-03-09T01:57:27.372Z,4.00
2019-03-09T01:58:27.350Z,4.00
2019-03-09T01:59:27.340Z,4.00
2019-03-09T02:00:27.299Z,4.00
2019-03-09T02:01:27.282Z,4.00
2019-03-09T02:02:27.252Z,4.00
2019-03-09T02:03:27.229Z,4.00
2019-03-09T02:04:27.212Z,4.00
2019-03-09T02:05:27.180Z,4.00
2019-03-09T02:06:27.157Z,4.00
2019-03-09T02:07:27.132Z,4.00
2019-03-09T02:08:27.117Z,4.00
2019-03-09T02:09:27.084Z,4.00
2019-03-09T02:10:27.061Z,4.00
2019-03-09T02:11:27.039Z,4.00
2019-03-09T02:12:27.019Z,4.00
2019-03-09T02:13:26.988Z,4.00
2019-03-09T02:14:26.964Z,4.00
2019-03-09T02:15:26.954Z,4.00
2019-03-09T02:16:26.917Z,4.00
2019-03-09T02:17:26.895Z,4.00
2019-03-09T02:18:26.868Z,4.00
2019-03-09T02:19:26.844Z,4.00
2019-03-09T02:20:26.820Z,4.00
2019-03-09T02:21:26.796Z,4.00
2019-03-09T02:22:26.778Z,4.00
2019-03-09T02:23:26.748Z,4.00
2019-03-09T02:24:26.725Z,4.00
2019-03-09T02:25:26.699Z,4.00
2019-03-09T02:26:26.676Z,4.00
2019-03-09T02:27:26.653Z,4.00
2019-03-09T02:28:26.626Z,4.00
2019-03-09T02:29:26.604Z,4.00
2019-03-09T02:30:26.591Z,4.00
2019-03-09T02:31:26.556Z,4.00
2019-03-09T02:32:26.533Z,4.00
2019-03-09T02:33:26.507Z,4.00
2019-03-09T02:34:26.492Z,4.00
2019-03-09T02:35:26.479Z,4.00
2019-03-09T02:36:26.477Z,4.00
2019-03-09T02:37:26.411Z,4.00
2019-03-09T02:38:26.386Z,4.00
2019-03-09T02:39:26.363Z,4.00
2019-03-09T02:40:26.343Z,4.00
2019-03-09T02:41:26.316Z,4.00
2019-03-09T02:42:26.291Z,4.00
2019-03-09T02:43:26.268Z,4.00
2019-03-09T02:44:26.242Z,4.00
2019-03-09T02:45:26.222Z,4.00
2019-03-09T02:46:26.194Z,4.00
2019-03-09T02:47:26.220Z,4.00
2019-03-09T02:48:26.148Z,4.00
2019-03-09T02:49:26.122Z,4.00
2019-03-09T02:50:26.098Z,4.00
2019-03-09T02:51:26.083Z,4.00
2019-03-09T02:52:26.051Z,4.00
2019-03-09T02:53:26.035Z,4.00
2019-03-09T02:54:26.003Z,4.00
2019-03-09T02:55:25.988Z,4.00
2019-03-09T02:56:25.954Z,4.00
2019-03-09T02:57:25.947Z,4.00
2019-03-09T02:58:25.905Z,4.00
2019-03-09T02:59:25.899Z,4.00
2019-03-09T03:00:25.856Z,4.00
2019-03-09T03:01:25.832Z,4.00
2019-03-09T03:02:25.817Z,4.00
2019-03-09T03:03:25.784Z,4.00
2019-03-09T03:04:25.759Z,4.00
2019-03-09T03:05:25.734Z,4.00
2019-03-09T03:06:25.712Z,4.00
2019-03-09T03:07:25.698Z,4.00
2019-03-09T03:08:25.663Z,4.00
2019-03-09T03:09:25.639Z,4.00
2019-03-09T03:10:25.617Z,4.00
2019-03-09T03:11:25.611Z,4.00
2019-03-09T03:12:25.567Z,4.00
2019-03-09T03:13:25.545Z,4.00
2019-03-09T03:14:25.517Z,4.00
2019-03-09T03:15:25.495Z,4.00
2019-03-09T03:16:25.472Z,4.00
2019-03-09T03:17:25.447Z,4.00
2019-03-09T03:18:25.427Z,4.00
2019-03-09T03:19:25.399Z,4.00
2019-03-09T03:20:25.374Z,4.00
2019-03-09T03:21:25.371Z,4.00
2019-03-09T03:22:25.335Z,4.00
2019-03-09T03:23:25.307Z,4.00
2019-03-09T03:24:25.333Z,4.00
2019-03-09T03:25:25.261Z,4.00
2019-03-09T03:26:25.232Z,4.00
2019-03-09T03:27:25.214Z,4.00
2019-03-09T03:28:25.182Z,4.00
2019-03-09T03:29:25.157Z,4.00
2019-03-09T03:30:25.139Z,4.00
2019-03-09T03:31:25.127Z,4.00
2019-03-09T03:32:25.087Z,4.00
2019-03-09T03:33:25.062Z,4.00
2019-03-09T03:34:25.041Z,4.00
2019-03-09T03:35:25.017Z,4.00
2019-03-09T03:36:24.995Z,4.00
2019-03-09T03:37:24.975Z,4.00
2019-03-09T03:38:24.943Z,4.00
2019-03-09T03:39:24.920Z,4.00
2019-03-09T03:40:24.896Z,4.00
2019-03-09T03:41:24.873Z,4.00
2019-03-09T03:42:24.866Z,4.00
2019-03-09T03:43:24.826Z,4.00
2019-03-09T03:44:24.810Z,4.00
2019-03-09T03:45:24.776Z,4.00
2019-03-09T03:46:24.754Z,4.00
2019-03-09T03:47:24.739Z,4.00
2019-03-09T03:48:24.703Z,4.00
2019-03-09T03:49:24.691Z,4.00
2019-03-09T03:50:24.662Z,4.00
2019-03-09T03:51:24.637Z,4.00
2019-03-09T03:52:24.617Z,4.00
2019-03-09T03:53:24.699Z,4.00
2019-03-09T03:54:24.585Z,4.00
2019-03-09T03:55:24.536Z,4.00
2019-03-09T03:56:24.563Z,4.00
2019-03-09T03:57:24.490Z,4.00
2019-03-09T03:58:24.474Z,4.00
2019-03-09T03:59:24.440Z,4.00
2019-03-09T04:00:24.417Z,4.00
2019-03-09T04:01:24.397Z,4.00
2019-03-09T04:02:24.369Z,4.00
2019-03-09T04:03:24.362Z,4.00
2019-03-09T04:04:24.322Z,4.00
2019-03-09T04:05:24.295Z,4.00
2019-03-09T04:06:24.273Z,4.00
2019-03-09T04:07:24.248Z,4.00
2019-03-09T04:08:24.223Z,4.00
2019-03-09T04:09:24.211Z,4.00
2019-03-09T04:10:24.181Z,4.00
2019-03-09T04:11:24.153Z,4.00
2019-03-09T04:12:24.132Z,4.00
2019-03-09T04:13:24.105Z,4.00
2019-03-09T04:14:24.080Z,4.00
2019-03-09T04:15:24.056Z,4.00
2019-03-09T04:16:24.032Z,4.00
2019-03-09T04:17:24.018Z,4.00
2019-03-09T04:18:24.045Z,4.00
2019-03-09T04:19:23.962Z,4.00
2019-03-09T04:20:23.938Z,4.00
2019-03-09T04:21:23.922Z,4.00
2019-03-09T04:22:23.890Z,4.00
2019-03-09T04:23:23.867Z,4.00
2019-03-09T04:24:23.853Z,4.00
2019-03-09T04:25:23.831Z,4.00
2019-03-09T04:26:23.796Z,4.00
2019-03-09T04:27:23.772Z,4.00
2019-03-09T04:28:23.746Z,4.00
2019-03-09T04:29:23.724Z,4.00
2019-03-09T04:30:23.698Z,4.00
2019-03-09T04:31:23.680Z,4.00
2019-03-09T04:32:23.649Z,4.00
2019-03-09T04:33:23.642Z,4.00
2019-03-09T04:34:23.604Z,4.00
2019-03-09T04:35:23.579Z,4.00
2019-03-09T04:36:23.570Z,4.00
2019-03-09T04:37:23.533Z,4.00
2019-03-09T04:38:23.507Z,4.00
2019-03-09T04:39:23.484Z,4.00
2019-03-09T04:40:23.462Z,4.00
2019-03-09T04:41:23.442Z,4.00
2019-03-09T04:42:23.416Z,4.00
2019-03-09T04:43:23.399Z,4.00
2019-03-09T04:44:23.364Z,4.00
2019-03-09T04:45:23.346Z,4.00
2019-03-09T04:46:23.316Z,4.00
2019-03-09T04:47:23.292Z,4.00
2019-03-09T04:48:23.268Z,4.00
2019-03-09T04:49:23.244Z,4.00
2019-03-09T04:50:23.221Z,4.00
2019-03-09T04:51:23.202Z,4.00
2019-03-09T04:52:23.173Z,4.00
2019-03-09T04:53:23.149Z,4.00
2019-03-09T04:54:23.125Z,4.00
2019-03-09T04:55:23.102Z,4.00
2019-03-09T04:56:23.079Z,4.00
2019-03-09T04:57:23.064Z,4.00
2019-03-09T04:58:23.031Z,4.00
2019-03-09T04:59:23.006Z,4.00
2019-03-09T05:00:22.984Z,4.00
2019-03-09T05:01:22.959Z,4.00
2019-03-09T05:02:22.936Z,4.00
2019-03-09T05:03:22.933Z,4.00
2019-03-09T05:04:22.887Z,4.00
2019-03-09T05:05:22.865Z,4.00
2019-03-09T05:06:22.841Z,4.00
2019-03-09T05:07:22.820Z,4.00
2019-03-09T05:08:22.801Z,4.00
2019-03-09T05:09:22.782Z,4.00
2019-03-09T05:10:22.746Z,4.00
2019-03-09T05:11:22.720Z,4.00
2019-03-09T05:12:22.698Z,4.00
2019-03-09T05:13:22.677Z,4.00
2019-03-09T05:14:22.653Z,4.00
2019-03-09T05:15:22.624Z,4.00
2019-03-09T05:16:22.602Z,4.00
2019-03-09T05:17:22.581Z,4.00
2019-03-09T05:18:22.558Z,4.00
2019-03-09T05:19:22.532Z,4.00
2019-03-09T05:20:22.506Z,4.00
2019-03-09T05:21:22.481Z,4.00
2019-03-09T05:22:22.460Z,4.00
2019-03-09T05:23:22.435Z,4.00
2019-03-09T05:24:22.412Z,4.00
2019-03-09T05:25:22.384Z,4.00
2019-03-09T05:26:22.363Z,4.00
2019-03-09T05:27:22.339Z,4.00
2019-03-09T05:28:22.314Z,8.00
2019-03-09T05:29:22.299Z,4.00
2019-03-09T05:30:22.278Z,4.00
2019-03-09T05:31:22.243Z,4.00
2019-03-09T05:32:22.217Z,8.00
2019-03-09T05:33:22.194Z,8.00
2019-03-09T05:34:22.171Z,8.00
2019-03-09T05:35:22.147Z,8.00
2019-03-09T05:36:22.142Z,16.00
2019-03-09T05:37:22.098Z,16.00
2019-03-09T05:38:22.075Z,20.00
2019-03-09T05:39:22.051Z,24.00
2019-03-09T05:40:22.025Z,24.00
2019-03-09T05:41:22.003Z,28.00
2019-03-09T05:42:21.982Z,32.00
2019-03-09T05:43:21.954Z,36.00
2019-03-09T05:44:21.932Z,44.00
2019-03-09T05:45:21.906Z,56.00
2019-03-09T05:46:22.088Z,68.00
2019-03-09T05:47:21.859Z,80.00
2019-03-09T05:48:21.835Z,88.00
2019-03-09T05:49:21.810Z,104.00
2019-03-09T05:50:21.797Z,120.00
2019-03-09T05:51:21.762Z,132.00
2019-03-09T05:52:21.738Z,148.00
2019-03-09T05:53:21.714Z,164.00
2019-03-09T05:54:21.698Z,172.00
2019-03-09T05:55:21.675Z,192.00
2019-03-09T05:56:21.642Z,204.00
2019-03-09T05:57:21.620Z,236.00
2019-03-09T05:58:21.594Z,252.00
2019-03-09T05:59:21.571Z,292.00
2019-03-09T06:00:21.546Z,316.00
2019-03-09T06:01:21.523Z,320.00
2019-03-09T06:02:21.498Z,328.00
2019-03-09T06:03:21.574Z,308.00
2019-03-09T06:04:21.460Z,372.00
2019-03-09T06:05:21.428Z,424.00
2019-03-09T06:06:21.401Z,448.00
2019-03-09T06:07:21.379Z,520.00
2019-03-09T06:08:21.354Z,492.00
2019-03-09T06:09:21.330Z,572.00
2019-03-09T06:10:21.304Z,632.00
2019-03-09T06:11:21.283Z,640.00
2019-03-09T06:12:21.258Z,724.00
2019-03-09T06:13:21.242Z,788.00
2019-03-09T06:14:21.215Z,804.00
2019-03-09T06:15:21.194Z,904.00
2019-03-09T06:16:21.169Z,932.00
2019-03-09T06:17:21.140Z,944.00
2019-03-09T06:18:21.112Z,956.00
2019-03-09T06:19:21.090Z,976.00
2019-03-09T06:20:21.066Z,956.00
2019-03-09T06:21:21.043Z,1060.00
2019-03-09T06:22:21.029Z,1196.00
2019-03-09T06:23:21.015Z,1416.00
2019-03-09T06:24:20.977Z,1524.00
2019-03-09T06:25:20.948Z,1564.00
2019-03-09T06:26:20.923Z,1540.00
2019-03-09T06:27:20.901Z,1552.00
2019-03-09T06:28:20.882Z,1716.00
2019-03-09T06:29:20.855Z,2200.00
2019-03-09T06:30:20.828Z,1724.00
2019-03-09T06:31:20.805Z,1548.00
2019-03-09T06:32:20.782Z,1840.00
2019-03-09T06:33:20.768Z,1900.00
2019-03-09T06:34:20.734Z,1940.00
2019-03-09T06:35:20.710Z,2096.00
2019-03-09T06:36:20.685Z,2428.00
2019-03-09T06:37:20.667Z,2592.00
2019-03-09T06:38:20.637Z,2584.00
2019-03-09T06:39:20.615Z,2472.00
2019-03-09T06:40:20.590Z,2420.00
2019-03-09T06:41:20.567Z,2644.00
2019-03-09T06:42:20.547Z,2796.00
2019-03-09T06:43:20.523Z,2808.00
2019-03-09T06:44:20.494Z,2956.00
2019-03-09T06:45:20.476Z,3160.00
2019-03-09T06:46:20.451Z,3320.00
2019-03-09T06:47:20.455Z,3456.00
2019-03-09T06:48:20.410Z,3328.00
2019-03-09T06:49:20.378Z,3204.00
2019-03-09T06:50:20.366Z,3052.00
2019-03-09T06:51:20.332Z,2956.00
2019-03-09T06:52:20.313Z,2972.00
2019-03-09T06:53:20.287Z,3004.00
2019-03-09T06:54:20.264Z,3124.00
2019-03-09T06:55:20.293Z,3244.00
2019-03-09T06:56:20.226Z,3384.00
2019-03-09T06:57:20.198Z,3548.00
2019-03-09T06:58:20.171Z,3672.00
2019-03-09T06:59:20.170Z,3716.00
2019-03-09T07:00:20.131Z,3732.00
2019-03-09T07:01:20.103Z,3724.00
2019-03-09T07:02:20.082Z,3848.00
2019-03-09T07:03:20.052Z,4128.00
2019-03-09T07:04:20.030Z,4336.00
2019-03-09T07:05:20.015Z,4328.00
2019-03-09T07:06:19.982Z,4244.00
2019-03-09T07:07:19.969Z,4248.00
2019-03-09T07:08:19.934Z,4388.00
2019-03-09T07:09:19.913Z,4612.00
2019-03-09T07:10:19.889Z,4688.00
2019-03-09T07:11:19.868Z,4556.00
2019-03-09T07:12:19.856Z,4276.00
2019-03-09T07:13:19.820Z,3952.00
2019-03-09T07:14:19.799Z,3816.00
2019-03-09T07:15:19.783Z,3820.00
2019-03-09T07:16:19.759Z,4052.00
2019-03-09T07:17:19.734Z,4320.00
2019-03-09T07:18:19.707Z,4508.00
2019-03-09T07:19:19.685Z,4764.00
2019-03-09T07:20:19.679Z,5244.00
2019-03-09T07:21:19.633Z,5928.00
2019-03-09T07:22:19.615Z,6152.00
2019-03-09T07:23:19.599Z,5288.00
2019-03-09T07:24:19.581Z,4876.00
2019-03-09T07:25:19.541Z,4972.00
2019-03-09T07:26:19.522Z,5392.00
2019-03-09T07:27:19.497Z,5836.00
2019-03-09T07:28:19.473Z,6132.00
2019-03-09T07:29:19.449Z,5960.00
2019-03-09T07:30:19.436Z,6360.00
2019-03-09T07:31:19.413Z,8472.00
2019-03-09T07:32:19.379Z,10028.00
2019-03-09T07:33:19.357Z,7664.00
2019-03-09T07:34:19.343Z,7288.00
2019-03-09T07:35:19.312Z,5692.00
2019-03-09T07:36:19.295Z,7280.00
2019-03-09T07:37:19.267Z,6708.00
2019-03-09T07:38:19.251Z,7672.00
2019-03-09T07:39:19.221Z,7556.00
2019-03-09T07:40:19.207Z,8176.00
2019-03-09T07:41:19.183Z,6296.00
2019-03-09T07:42:19.156Z,6940.00
2019-03-09T07:43:19.155Z,6636.00
2019-03-09T07:44:19.109Z,8572.00
2019-03-09T07:45:19.086Z,10004.00
2019-03-09T07:46:19.063Z,11180.00
2019-03-09T07:47:19.044Z,10160.00
2019-03-09T07:48:19.019Z,9416.00
2019-03-09T07:49:19.002Z,8112.00
2019-03-09T07:50:18.972Z,6980.00
2019-03-09T07:51:18.953Z,6504.00
2019-03-09T07:52:18.929Z,6676.00
2019-03-09T07:53:18.906Z,7024.00
2019-03-09T07:54:18.899Z,7544.00
2019-03-09T07:55:18.881Z,7696.00
2019-03-09T07:56:18.859Z,7516.00
2019-03-09T07:57:18.815Z,7248.00
2019-03-09T07:58:18.796Z,7424.00
2019-03-09T07:59:18.834Z,6256.00
2019-03-09T08:00:18.765Z,5452.00
2019-03-09T08:01:18.728Z,6432.00
2019-03-09T08:02:18.709Z,8304.00
2019-03-09T08:03:18.699Z,7864.00
2019-03-09T08:04:18.670Z,8932.00
2019-03-09T08:05:18.640Z,7580.00
2019-03-09T08:06:18.631Z,6908.00
2019-03-09T08:07:18.596Z,6980.00
2019-03-09T08:08:18.576Z,5820.00
2019-03-09T08:09:18.554Z,5696.00
2019-03-09T08:10:18.551Z,4952.00
2019-03-09T08:11:18.516Z,5052.00
2019-03-09T08:12:18.486Z,6824.00
2019-03-09T08:13:18.466Z,6244.00
2019-03-09T08:14:18.443Z,6636.00
2019-03-09T08:15:18.429Z,7224.00
2019-03-09T08:16:18.415Z,8356.00
2019-03-09T08:17:18.383Z,9072.00
2019-03-09T08:18:18.354Z,10416.00
2019-03-09T08:19:18.337Z,9512.00
2019-03-09T08:20:18.312Z,11704.00
2019-03-09T08:21:18.296Z,12628.00
2019-03-09T08:22:18.276Z,11208.00
2019-03-09T08:23:18.245Z,11820.00
2019-03-09T08:24:18.230Z,14824.00
2019-03-09T08:25:18.213Z,15664.00
2019-03-09T08:26:18.181Z,14108.00
2019-03-09T08:27:18.167Z,13096.00
2019-03-09T08:28:18.138Z,12100.00
2019-03-09T08:29:18.115Z,11188.00
2019-03-09T08:30:18.097Z,10168.00
2019-03-09T08:31:18.087Z,10200.00
2019-03-09T08:32:18.103Z,8976.00
2019-03-09T08:33:18.031Z,9224.00
2019-03-09T08:34:18.031Z,9184.00
2019-03-09T08:35:17.989Z,8796.00
2019-03-09T08:36:17.969Z,8356.00
2019-03-09T08:37:17.964Z,9032.00
2019-03-09T08:38:17.933Z,9272.00
2019-03-09T08:39:17.919Z,9172.00
2019-03-09T08:40:17.911Z,9460.00
2019-03-09T08:41:17.862Z,9996.00
2019-03-09T08:42:17.841Z,10488.00
2019-03-09T08:43:17.833Z,10456.00
2019-03-09T08:44:17.814Z,10332.00
2019-03-09T08:45:17.780Z,10404.00
2019-03-09T08:46:17.757Z,10444.00
2019-03-09T08:47:17.740Z,10480.00
2019-03-09T08:48:17.723Z,10724.00
2019-03-09T08:49:17.695Z,10712.00
2019-03-09T08:50:17.682Z,10680.00
2019-03-09T08:51:17.663Z,10264.00
2019-03-09T08:52:17.640Z,9972.00
2019-03-09T08:53:17.631Z,10016.00
2019-03-09T08:54:17.591Z,10476.00
2019-03-09T08:55:18.144Z,10696.00
2019-03-09T08:56:17.558Z,9548.00
2019-03-09T08:57:17.523Z,9048.00
2019-03-09T08:58:17.525Z,7660.00
2019-03-09T08:59:17.492Z,8880.00
2019-03-09T09:00:17.492Z,10960.00
2019-03-09T09:01:17.484Z,11748.00
2019-03-09T09:02:17.419Z,13800.00
2019-03-09T09:03:17.404Z,14912.00
2019-03-09T09:04:17.377Z,14620.00
2019-03-09T09:05:17.358Z,19136.00
2019-03-09T09:06:17.336Z,20192.00
2019-03-09T09:07:17.316Z,17824.00
2019-03-09T09:08:17.307Z,14680.00
2019-03-09T09:09:17.276Z,13236.00
2019-03-09T09:10:17.260Z,12092.00
2019-03-09T09:11:17.234Z,11436.00
2019-03-09T09:12:17.215Z,11948.00
2019-03-09T09:13:17.192Z,12012.00
2019-03-09T09:14:17.184Z,11676.00
2019-03-09T09:15:17.151Z,11728.00
2019-03-09T09:16:17.153Z,12684.00
2019-03-09T09:17:17.110Z,14052.00
2019-03-09T09:18:17.098Z,14116.00
2019-03-09T09:19:17.073Z,13048.00
2019-03-09T09:20:17.057Z,12724.00
2019-03-09T09:21:17.028Z,12144.00
2019-03-09T09:22:17.018Z,11472.00
2019-03-09T09:23:16.989Z,11284.00
2019-03-09T09:24:17.033Z,11528.00
2019-03-09T09:25:16.950Z,11820.00
2019-03-09T09:26:16.937Z,12416.00
2019-03-09T09:27:16.913Z,12620.00
2019-03-09T09:28:16.895Z,12988.00
2019-03-09T09:29:16.867Z,12876.00
2019-03-09T09:30:16.848Z,12164.00
2019-03-09T09:31:16.830Z,11200.00
2019-03-09T09:32:16.813Z,9332.00
2019-03-09T09:33:16.798Z,10644.00
2019-03-09T09:34:16.767Z,12408.00
2019-03-09T09:35:16.765Z,13184.00
2019-03-09T09:36:16.735Z,10980.00
2019-03-09T09:37:16.712Z,10876.00
2019-03-09T09:38:16.695Z,14788.00
2019-03-09T09:39:16.665Z,17088.00
2019-03-09T09:40:16.646Z,17312.00
2019-03-09T09:41:16.637Z,14100.00
2019-03-09T09:42:16.605Z,11200.00
2019-03-09T09:43:16.587Z,11900.00
2019-03-09T09:44:16.568Z,10504.00
2019-03-09T09:45:16.560Z,11580.00
2019-03-09T09:46:16.529Z,12680.00
2019-03-09T09:47:16.525Z,12736.00
2019-03-09T09:48:16.489Z,13596.00
2019-03-09T09:49:16.482Z,13468.00
2019-03-09T09:50:16.449Z,12108.00
2019-03-09T09:51:16.424Z,10060.00
2019-03-09T09:52:16.428Z,9292.00
2019-03-09T09:53:16.383Z,11564.00
2019-03-09T09:54:16.365Z,11160.00
2019-03-09T09:55:16.343Z,10556.00
2019-03-09T09:56:16.333Z,10072.00
2019-03-09T09:57:16.303Z,9572.00
2019-03-09T09:58:16.283Z,9012.00
2019-03-09T09:59:16.266Z,8732.00
2019-03-09T10:00:16.244Z,7844.00
2019-03-09T10:01:16.234Z,7984.00
2019-03-09T10:02:16.203Z,7764.00
2019-03-09T10:03:16.181Z,7716.00
2019-03-09T10:04:16.170Z,7868.00
2019-03-09T10:05:16.149Z,7816.00
2019-03-09T10:06:16.122Z,7240.00
2019-03-09T10:07:16.101Z,6808.00
2019-03-09T10:08:16.081Z,6756.00
2019-03-09T10:09:16.077Z,6768.00
2019-03-09T10:10:16.047Z,6608.00
2019-03-09T10:11:16.026Z,6652.00
2019-03-09T10:12:15.999Z,7028.00
2019-03-09T10:13:15.986Z,7600.00
2019-03-09T10:14:15.975Z,7812.00
2019-03-09T10:15:15.943Z,7996.00
2019-03-09T10:16:16.180Z,8252.00
2019-03-09T10:17:15.914Z,8592.00
2019-03-09T10:18:15.877Z,8936.00
2019-03-09T10:19:15.855Z,9220.00
2019-03-09T10:20:15.835Z,9392.00
2019-03-09T10:21:15.815Z,9524.00
2019-03-09T10:22:15.794Z,9548.00
2019-03-09T10:23:15.785Z,9540.00
2019-03-09T10:24:15.757Z,9672.00
2019-03-09T10:25:15.734Z,10036.00
2019-03-09T10:26:15.729Z,10480.00
2019-03-09T10:27:15.701Z,11144.00
2019-03-09T10:28:15.672Z,11860.00
2019-03-09T10:29:15.673Z,12332.00
2019-03-09T10:30:15.639Z,12360.00
2019-03-09T10:31:15.613Z,12748.00
2019-03-09T10:32:15.599Z,14112.00
2019-03-09T10:33:15.573Z,15384.00
2019-03-09T10:34:15.553Z,15288.00
2019-03-09T10:35:15.529Z,15512.00
2019-03-09T10:36:15.509Z,17824.00
2019-03-09T10:37:15.491Z,19008.00
2019-03-09T10:38:15.483Z,19296.00
2019-03-09T10:39:15.457Z,18976.00
2019-03-09T10:40:15.434Z,20256.00
2019-03-09T10:41:15.413Z,20480.00
2019-03-09T10:42:15.393Z,17952.00
2019-03-09T10:43:15.385Z,20128.00
2019-03-09T10:44:15.363Z,19968.00
2019-03-09T10:45:15.340Z,20416.00
2019-03-09T10:46:15.313Z,21792.00
2019-03-09T10:47:15.292Z,22304.00
2019-03-09T10:48:15.279Z,21344.00
2019-03-09T10:49:15.261Z,19936.00
2019-03-09T10:50:15.237Z,20096.00
2019-03-09T10:51:15.215Z,18976.00
2019-03-09T10:52:15.211Z,18976.00
2019-03-09T10:53:15.174Z,15724.00
2019-03-09T10:54:15.155Z,15296.00
2019-03-09T10:55:15.141Z,15920.00
2019-03-09T10:56:15.120Z,16736.00
2019-03-09T10:57:15.101Z,15152.00
2019-03-09T10:58:15.081Z,14760.00
2019-03-09T10:59:15.064Z,14656.00
2019-03-09T11:00:15.042Z,18368.00
2019-03-09T11:01:15.034Z,13564.00
2019-03-09T11:02:15.013Z,14424.00
2019-03-09T11:03:14.994Z,14552.00
2019-03-09T11:04:14.968Z,13460.00
2019-03-09T11:05:14.954Z,13320.00
2019-03-09T11:06:14.937Z,11072.00
2019-03-09T11:07:14.911Z,11256.00
2019-03-09T11:08:14.994Z,13780.00
2019-03-09T11:09:14.874Z,14780.00
2019-03-09T11:10:14.867Z,14336.00
2019-03-09T11:11:14.842Z,13356.00
2019-03-09T11:12:14.816Z,13608.00
2019-03-09T11:13:14.797Z,12428.00
2019-03-09T11:14:14.777Z,11412.00
2019-03-09T11:15:14.762Z,11884.00
2019-03-09T11:16:14.738Z,13536.00
2019-03-09T11:17:14.721Z,13392.00
2019-03-09T11:18:14.703Z,12824.00
2019-03-09T11:19:14.688Z,12968.00
2019-03-09T11:20:14.666Z,13480.00
2019-03-09T11:21:14.644Z,15172.00
2019-03-09T11:22:14.643Z,18496.00
2019-03-09T11:23:14.606Z,22208.00
2019-03-09T11:24:14.586Z,22752.00
2019-03-09T11:25:14.570Z,19296.00
2019-03-09T11:26:14.549Z,17888.00
2019-03-09T11:27:14.531Z,15868.00
2019-03-09T11:28:14.519Z,18176.00
2019-03-09T11:29:14.501Z,16468.00
2019-03-09T11:30:14.482Z,15816.00
2019-03-09T11:31:14.455Z,17472.00
2019-03-09T11:32:14.435Z,16960.00
2019-03-09T11:33:14.417Z,13836.00
2019-03-09T11:34:14.399Z,19648.00
2019-03-09T11:35:14.386Z,17248.00
2019-03-09T11:36:14.360Z,26720.00
2019-03-09T11:37:14.348Z,27232.00
2019-03-09T11:38:14.330Z,26592.00
2019-03-09T11:39:14.321Z,23552.00
2019-03-09T11:40:14.287Z,19296.00
2019-03-09T11:41:18.975Z,16384.00
2019-03-09T11:42:14.251Z,16212.00
2019-03-09T11:43:14.241Z,23744.00
2019-03-09T11:44:14.212Z,41888.00
2019-03-09T11:45:14.193Z,25120.00
2019-03-09T11:46:14.183Z,14932.00
2019-03-09T11:47:14.170Z,13836.00
2019-03-09T11:48:14.147Z,12892.00
2019-03-09T11:49:14.122Z,13492.00
2019-03-09T11:50:14.111Z,8492.00
2019-03-09T11:51:14.092Z,7208.00
2019-03-09T11:52:20.172Z,11784.00
2019-03-09T11:53:14.050Z,13652.00
2019-03-09T11:54:14.030Z,13608.00
2019-03-09T11:55:14.012Z,12992.00
2019-03-09T11:56:14.008Z,10672.00
2019-03-09T11:57:13.977Z,8240.00
2019-03-09T11:58:13.959Z,14048.00
2019-03-09T11:59:13.948Z,19136.00
2019-03-09T12:00:13.979Z,15620.00
2019-03-09T12:01:13.915Z,12236.00
2019-03-09T12:02:13.907Z,8876.00
2019-03-09T12:03:13.864Z,8536.00
2019-03-09T12:04:13.862Z,10448.00
2019-03-09T12:05:13.827Z,10292.00
2019-03-09T12:06:13.809Z,8392.00
2019-03-09T12:07:13.794Z,6988.00
2019-03-09T12:08:13.786Z,6444.00
2019-03-09T12:09:13.765Z,5196.00
2019-03-09T12:10:13.733Z,2376.00
2019-03-09T12:11:13.723Z,2928.00
2019-03-09T12:12:13.695Z,8860.00
2019-03-09T12:13:13.681Z,16344.00
2019-03-09T12:14:13.657Z,12576.00
2019-03-09T12:15:13.638Z,12892.00
2019-03-09T12:16:13.630Z,17728.00
2019-03-09T12:17:13.614Z,17728.00
2019-03-09T12:18:13.604Z,15876.00
2019-03-09T12:19:13.622Z,13716.00
2019-03-09T12:20:13.545Z,11988.00
2019-03-09T12:21:13.528Z,13540.00
2019-03-09T12:22:13.512Z,12692.00
2019-03-09T12:23:13.489Z,13460.00
2019-03-09T12:24:17.691Z,10576.00
2019-03-09T12:25:13.449Z,8384.00
2019-03-09T12:26:13.429Z,7396.00
2019-03-09T12:27:13.471Z,9580.00
2019-03-09T12:28:13.393Z,8400.00
2019-03-09T12:29:13.382Z,10836.00
2019-03-09T12:30:13.363Z,15192.00
2019-03-09T12:31:13.336Z,14944.00
2019-03-09T12:32:13.322Z,16644.00